PAFR METAR and TAF weather

Enter ICAO airport designator
Station Type Date Time Source
PAFR METAR 2019/04/24 15:58 UTC NOAA

PAFR 241558Z AUTO 35003KT 9SM SCT007 SCT080 BKN150 M02/M04 A3000 RMK AO2 SLP169 T10231043


Station Type Date Time Source
PAFR Decoded METAR 2019/04/24 15:58 UTC NOAA

Ft. Richardson / Bryant U. S. Army Heliport, Ak, AK, United States (PAFR) 61-16N 149-39W 115M
Apr 24, 2019 - 11:58 AM EDT / 2019.04.24 1558 UTC
Wind: from the N (350 degrees) at 3 MPH (3 KT):0
Visibility: 9 mile(s):0
Sky conditions: mostly cloudy
Temperature: 27.9 F (-2.3 C)
Dew Point: 24.3 F (-4.3 C)
Relative Humidity: 86%
Pressure (altimeter): 30 in. Hg (1015 hPa)
ob: PAFR 241558Z AUTO 35003KT 9SM SCT007 SCT080 BKN150 M02/M04 A3000 RMK AO2 SLP169 T10231043
cycle: 16

Station Type Date Time Source
PAFR TAF UTC NOAA

Error!

Example: see airport list